createdAt,value
2018-01-22T00:00:20.812Z,30.2
2018-01-22T00:01:20.703Z,30
2018-01-22T00:02:20.653Z,29.6
2018-01-22T00:03:20.566Z,29.6
2018-01-22T00:04:20.516Z,29.6
2018-01-22T00:05:20.452Z,29.5
2018-01-22T00:06:20.401Z,29.8
2018-01-22T00:07:20.308Z,30.2
2018-01-22T00:08:20.239Z,30.2
2018-01-22T00:09:20.192Z,30.4
2018-01-22T00:10:20.083Z,30.4
2018-01-22T00:11:20.057Z,30.4
2018-01-22T00:12:19.986Z,30.6
2018-01-22T00:13:19.895Z,30.7
2018-01-22T00:14:19.848Z,30.8
2018-01-22T00:15:19.781Z,31
2018-01-22T00:16:19.690Z,31.1
2018-01-22T00:17:19.619Z,31.1
2018-01-22T00:18:19.532Z,31.3
2018-01-22T00:19:19.485Z,31.3
2018-01-22T00:20:19.435Z,31.4
2018-01-22T00:21:19.350Z,31.6
2018-01-22T00:22:19.298Z,31.6
2018-01-22T00:23:19.228Z,31.8
2018-01-22T00:24:19.122Z,31.9
2018-01-22T00:25:19.070Z,31.9
2018-01-22T00:26:19.006Z,32
2018-01-22T00:27:18.931Z,32.1
2018-01-22T00:28:18.885Z,32.2
2018-01-22T00:29:18.793Z,32.3
2018-01-22T00:30:18.724Z,32.4
2018-01-22T00:31:18.657Z,32.5
2018-01-22T00:32:18.608Z,32.6
2018-01-22T00:33:18.498Z,32.7
2018-01-22T00:34:18.451Z,32.8
2018-01-22T00:35:18.379Z,32.9
2018-01-22T00:36:18.293Z,32.9
2018-01-22T00:37:18.267Z,33.1
2018-01-22T00:38:18.175Z,33.1
2018-01-22T00:39:18.108Z,33.2
2018-01-22T00:40:18.038Z,33.3
2018-01-22T00:41:17.987Z,33.4
2018-01-22T00:42:17.898Z,33.5
2018-01-22T00:43:17.830Z,33.6
2018-01-22T00:44:17.762Z,33.7
2018-01-22T00:45:17.672Z,33.8
2018-01-22T00:46:17.642Z,33.9
2018-01-22T00:47:17.574Z,33.9
2018-01-22T00:48:17.485Z,34
2018-01-22T00:49:17.436Z,34.1
2018-01-22T00:50:17.348Z,34.2
2018-01-22T00:51:17.258Z,34.3
2018-01-22T00:52:17.209Z,34.4
2018-01-22T00:53:17.140Z,34.5
2018-01-22T00:54:17.051Z,34.6
2018-01-22T00:55:16.983Z,34.6
2018-01-22T00:56:16.935Z,34.7
2018-01-22T00:57:16.853Z,34.8
2018-01-22T00:58:16.776Z,34.9
2018-01-22T00:59:16.748Z,35
2018-01-22T01:00:16.637Z,35.1
2018-01-22T01:01:16.592Z,34.9
2018-01-22T01:02:16.521Z,34.4
2018-01-22T01:03:16.433Z,34.4
2018-01-22T01:04:16.379Z,34.6
2018-01-22T01:05:16.313Z,34.4
2018-01-22T01:06:16.264Z,34.8
2018-01-22T01:07:16.178Z,34.9
2018-01-22T01:08:16.126Z,35
2018-01-22T01:09:16.017Z,35.3
2018-01-22T01:10:15.965Z,35.2
2018-01-22T01:11:15.919Z,35.3
2018-01-22T01:12:15.850Z,35.4
2018-01-22T01:13:15.764Z,35.4
2018-01-22T01:14:15.714Z,35.6
2018-01-22T01:15:15.604Z,35.8
2018-01-22T01:16:15.535Z,35.8
2018-01-22T01:17:15.486Z,35.9
2018-01-22T01:18:15.397Z,36
2018-01-22T01:19:15.328Z,36.1
2018-01-22T01:20:15.280Z,36.2
2018-01-22T01:21:15.209Z,36.3
2018-01-22T01:22:15.124Z,36.4
2018-01-22T01:23:15.074Z,36.4
2018-01-22T01:24:15.024Z,36.5
2018-01-22T01:25:14.935Z,36.7
2018-01-22T01:26:14.892Z,36.7
2018-01-22T01:27:14.817Z,36.8
2018-01-22T01:28:14.708Z,36.9
2018-01-22T01:29:14.663Z,37
2018-01-22T01:30:14.591Z,37.1
2018-01-22T01:31:14.525Z,37.1
2018-01-22T01:32:14.473Z,37.3
2018-01-22T01:33:14.382Z,37.3
2018-01-22T01:34:14.313Z,37.4
2018-01-22T01:35:14.248Z,37.4
2018-01-22T01:36:14.197Z,37.6
2018-01-22T01:37:14.088Z,37.6
2018-01-22T01:38:14.038Z,37.8
2018-01-22T01:39:13.969Z,37.8
2018-01-22T01:40:13.880Z,37.9
2018-01-22T01:41:13.852Z,37.9
2018-01-22T01:42:13.764Z,38.1
2018-01-22T01:43:13.693Z,38.1
2018-01-22T01:44:13.623Z,38.2
2018-01-22T01:45:13.581Z,38.3
2018-01-22T01:46:13.485Z,38.4
2018-01-22T01:47:13.421Z,38.4
2018-01-22T01:48:13.351Z,38.6
2018-01-22T01:49:13.262Z,38.6
2018-01-22T01:50:13.231Z,38.7
2018-01-22T01:51:13.163Z,38.8
2018-01-22T01:52:13.074Z,38.9
2018-01-22T01:53:13.029Z,38.9
2018-01-22T01:54:12.935Z,39
2018-01-22T01:55:12.846Z,39.1
2018-01-22T01:56:12.794Z,39.2
2018-01-22T01:57:12.726Z,39.3
2018-01-22T01:58:12.639Z,39.3
2018-01-22T01:59:12.571Z,39.4
2018-01-22T02:00:12.523Z,39.5
2018-01-22T02:01:12.433Z,39.3
2018-01-22T02:02:12.364Z,38.8
2018-01-22T02:03:12.334Z,39
2018-01-22T02:04:12.224Z,39.1
2018-01-22T02:05:12.176Z,38.9
2018-01-22T02:06:12.108Z,39.3
2018-01-22T02:07:12.018Z,39.3
2018-01-22T02:08:11.969Z,39.4
2018-01-22T02:09:11.900Z,39.6
2018-01-22T02:10:11.852Z,39.6
2018-01-22T02:11:11.761Z,39.8
2018-01-22T02:12:11.674Z,39.8
2018-01-22T02:13:11.645Z,39.9
2018-01-22T02:14:11.558Z,40.1
2018-01-22T02:15:11.467Z,40
2018-01-22T02:16:11.398Z,40.2
2018-01-22T02:17:11.349Z,40.3
2018-01-22T02:18:11.279Z,40.3
2018-01-22T02:19:11.210Z,40.4
2018-01-22T02:20:11.143Z,40.5
2018-01-22T02:21:11.052Z,40.6
2018-01-22T02:22:11.008Z,40.7
2018-01-22T02:23:10.935Z,40.8
2018-01-22T02:24:10.888Z,40.9
2018-01-22T02:25:10.819Z,40.9
2018-01-22T02:26:10.729Z,41
2018-01-22T02:27:10.639Z,41.1
2018-01-22T02:28:10.593Z,41.1
2018-01-22T02:29:10.501Z,41.3
2018-01-22T02:30:10.452Z,41.3
2018-01-22T02:31:10.381Z,41.4
2018-01-22T02:32:10.316Z,41.5
2018-01-22T02:33:10.225Z,41.5
2018-01-22T02:34:10.157Z,41.6
2018-01-22T02:35:10.141Z,41.7
2018-01-22T02:36:10.046Z,41.8
2018-01-22T02:37:09.992Z,41.9
2018-01-22T02:38:09.922Z,41.9
2018-01-22T02:39:09.812Z,42
2018-01-22T02:40:09.762Z,42.1
2018-01-22T02:41:09.696Z,42.2
2018-01-22T02:42:09.648Z,42.3
2018-01-22T02:43:09.576Z,42.3
2018-01-22T02:44:09.490Z,42.4
2018-01-22T02:45:09.467Z,42.5
2018-01-22T02:46:09.329Z,42.6
2018-01-22T02:47:09.300Z,42.6
2018-01-22T02:48:09.232Z,42.7
2018-01-22T02:49:09.140Z,42.8
2018-01-22T02:50:09.095Z,42.9
2018-01-22T02:51:08.984Z,42.9
2018-01-22T02:52:08.914Z,43
2018-01-22T02:53:08.872Z,43.1
2018-01-22T02:54:08.802Z,43.2
2018-01-22T02:55:08.726Z,43.3
2018-01-22T02:56:08.642Z,43.3
2018-01-22T02:57:08.590Z,43.4
2018-01-22T02:58:08.501Z,43.4
2018-01-22T02:59:08.451Z,43.6
2018-01-22T03:00:08.403Z,43.6
2018-01-22T03:01:08.335Z,43.4
2018-01-22T03:02:08.246Z,43
2018-01-22T03:03:08.175Z,43.3
2018-01-22T03:04:08.086Z,43.4
2018-01-22T03:05:08.037Z,43.3
2018-01-22T03:06:07.969Z,43.5
2018-01-22T03:07:07.896Z,43.4
2018-01-22T03:08:07.829Z,43.6
2018-01-22T03:09:07.781Z,43.8
2018-01-22T03:10:07.714Z,43.8
2018-01-22T03:11:07.621Z,43.9
2018-01-22T03:12:07.534Z,43.9
2018-01-22T03:13:07.505Z,44.1
2018-01-22T03:14:07.418Z,44.1
2018-01-22T03:15:07.367Z,44.2
2018-01-22T03:16:07.279Z,44.3
2018-01-22T03:17:07.207Z,44.3
2018-01-22T03:18:07.121Z,44.5
2018-01-22T03:19:07.072Z,44.6
2018-01-22T03:20:07.004Z,44.6
2018-01-22T03:21:06.914Z,44.7
2018-01-22T03:22:06.885Z,44.8
2018-01-22T03:23:06.780Z,44.9
2018-01-22T03:24:06.707Z,44.9
2018-01-22T03:25:06.659Z,45
2018-01-22T03:26:06.569Z,45.1
2018-01-22T03:27:06.501Z,45.1
2018-01-22T03:28:06.449Z,45.3
2018-01-22T03:29:06.385Z,45.3
2018-01-22T03:30:06.296Z,45.4
2018-01-22T03:31:06.246Z,45.4
2018-01-22T03:32:06.201Z,45.6
2018-01-22T03:33:06.108Z,45.6
2018-01-22T03:34:06.058Z,45.7
2018-01-22T03:35:05.996Z,45.8
2018-01-22T03:36:05.882Z,45.8
2018-01-22T03:37:05.831Z,45.9
2018-01-22T03:38:05.761Z,46
2018-01-22T03:39:05.693Z,46.1
2018-01-22T03:40:05.644Z,46.1
2018-01-22T03:41:05.553Z,46.2
2018-01-22T03:42:05.484Z,46.3
2018-01-22T03:43:05.417Z,46.3
2018-01-22T03:44:05.368Z,46.4
2018-01-22T03:45:05.260Z,46.5
2018-01-22T03:46:05.208Z,46.6
2018-01-22T03:47:05.139Z,46.6
2018-01-22T03:48:05.051Z,46.7
2018-01-22T03:49:05.026Z,46.8
2018-01-22T03:50:04.933Z,46.8
2018-01-22T03:51:04.862Z,46
2018-01-22T03:52:04.793Z,45.3
2018-01-22T03:53:04.746Z,44.9
2018-01-22T03:54:04.655Z,44.2
2018-01-22T03:55:04.591Z,43.6
2018-01-22T03:56:04.519Z,42.6
2018-01-22T03:57:04.431Z,41.9
2018-01-22T03:58:04.401Z,41.1
2018-01-22T03:59:04.332Z,41.3
2018-01-22T04:00:04.242Z,41.2
2018-01-22T04:01:04.198Z,40.7
2018-01-22T04:02:04.104Z,40.3
2018-01-22T04:03:04.015Z,40.8
2018-01-22T04:04:03.965Z,41.1
2018-01-22T04:05:03.898Z,40.8
2018-01-22T04:06:03.847Z,41
2018-01-22T04:07:03.784Z,40.9
2018-01-22T04:08:03.688Z,41.3
2018-01-22T04:09:03.641Z,41.5
2018-01-22T04:10:03.572Z,41.5
2018-01-22T04:11:03.465Z,41.6
2018-01-22T04:12:03.434Z,41.6
2018-01-22T04:13:03.345Z,41.9
2018-01-22T04:14:03.275Z,41.9
2018-01-22T04:15:03.228Z,42
2018-01-22T04:16:03.137Z,42
2018-01-22T04:17:03.068Z,42.1
2018-01-22T04:18:02.982Z,42.3
2018-01-22T04:19:02.930Z,42.4
2018-01-22T04:20:02.842Z,42.5
2018-01-22T04:21:02.813Z,42.5
2018-01-22T04:22:02.727Z,42.6
2018-01-22T04:23:02.635Z,42.8
2018-01-22T04:24:02.568Z,42.8
2018-01-22T04:25:02.522Z,42.9
2018-01-22T04:26:02.445Z,43
2018-01-22T04:27:02.381Z,43.1
2018-01-22T04:28:02.310Z,43.2
2018-01-22T04:29:02.220Z,43.3
2018-01-22T04:30:02.172Z,43.4
2018-01-22T04:31:02.103Z,43.4
2018-01-22T04:32:02.053Z,43.5
2018-01-22T04:33:01.986Z,43.6
2018-01-22T04:34:01.896Z,43.7
2018-01-22T04:35:01.810Z,43.6
2018-01-22T04:36:01.755Z,43.5
2018-01-22T04:37:01.671Z,43.6
2018-01-22T04:38:01.618Z,43.7
2018-01-22T04:39:01.550Z,43.8
2018-01-22T04:40:01.484Z,43.9
2018-01-22T04:41:01.394Z,43.9
2018-01-22T04:42:01.324Z,43.8
2018-01-22T04:43:01.295Z,43.8
2018-01-22T04:44:01.209Z,43.9
2018-01-22T04:45:01.156Z,43.9
2018-01-22T04:46:01.092Z,44
2018-01-22T04:47:00.978Z,43.6
2018-01-22T04:48:00.932Z,43.9
2018-01-22T04:49:00.860Z,44
2018-01-22T04:50:00.812Z,43.2
2018-01-22T04:51:00.742Z,42.9
2018-01-22T04:52:00.654Z,43.1
2018-01-22T04:53:00.587Z,43.1
2018-01-22T04:54:00.496Z,43
2018-01-22T04:55:00.470Z,43.1
2018-01-22T04:56:00.398Z,43.2
2018-01-22T04:57:00.306Z,42.6
2018-01-22T04:58:00.260Z,42.3
2018-01-22T04:59:00.150Z,42.6
2018-01-22T05:00:00.086Z,42.4
2018-01-22T05:01:00.050Z,42.4
2018-01-22T05:01:59.944Z,41.8
2018-01-22T05:02:59.875Z,42.2
2018-01-22T05:03:59.824Z,42.1
2018-01-22T05:04:59.737Z,42
2018-01-22T05:05:59.687Z,42.3
2018-01-22T05:06:59.639Z,41.9
2018-01-22T05:07:59.551Z,42.5
2018-01-22T05:08:59.483Z,42.4
2018-01-22T05:09:59.433Z,42.6
2018-01-22T05:10:59.364Z,42.8
2018-01-22T05:11:59.274Z,42.7
2018-01-22T05:12:59.230Z,43.1
2018-01-22T05:13:59.158Z,43.1
2018-01-22T05:14:59.048Z,43.3
2018-01-22T05:15:59.020Z,43.4
2018-01-22T05:16:58.932Z,43.4
2018-01-22T05:17:58.860Z,43.7
2018-01-22T05:18:58.816Z,43.6
2018-01-22T05:19:58.725Z,43.9
2018-01-22T05:20:58.654Z,43.9
2018-01-22T05:21:58.567Z,44.1
2018-01-22T05:22:58.515Z,44.2
2018-01-22T05:23:58.428Z,44.2
2018-01-22T05:24:58.400Z,44.4
2018-01-22T05:25:58.311Z,44.4
2018-01-22T05:26:58.223Z,44.6
2018-01-22T05:27:58.153Z,44.7
2018-01-22T05:28:58.105Z,44.8
2018-01-22T05:29:58.035Z,44.9
2018-01-22T05:30:57.966Z,44.9
2018-01-22T05:31:57.898Z,45.1
2018-01-22T05:32:57.808Z,45.2
2018-01-22T05:33:57.760Z,45.3
2018-01-22T05:34:57.691Z,45.4
2018-01-22T05:35:57.643Z,45.4
2018-01-22T05:36:57.572Z,45.6
2018-01-22T05:37:57.484Z,45.6
2018-01-22T05:38:57.396Z,45.8
2018-01-22T05:39:57.344Z,45.9
2018-01-22T05:40:57.255Z,45.9
2018-01-22T05:41:57.210Z,46.1
2018-01-22T05:42:57.138Z,46.1
2018-01-22T05:43:57.070Z,46.3
2018-01-22T05:44:56.983Z,46.3
2018-01-22T05:45:56.911Z,46.4
2018-01-22T05:46:56.881Z,46.5
2018-01-22T05:47:56.793Z,46.6
2018-01-22T05:48:56.743Z,46.7
2018-01-22T05:49:56.675Z,46.8
2018-01-22T05:50:56.565Z,46.9
2018-01-22T05:51:56.516Z,46.9
2018-01-22T05:52:56.454Z,47.1
2018-01-22T05:53:56.401Z,47.1
2018-01-22T05:54:56.330Z,47.3
2018-01-22T05:55:56.242Z,47.3
2018-01-22T05:56:56.170Z,47.4
2018-01-22T05:57:56.086Z,47.5
2018-01-22T05:58:56.013Z,47.6
2018-01-22T05:59:55.944Z,47.7
2018-01-22T06:00:55.897Z,47.6
2018-01-22T06:01:55.805Z,47.1
2018-01-22T06:02:55.780Z,47.4
2018-01-22T06:03:55.708Z,47.5
2018-01-22T06:04:55.618Z,47.4
2018-01-22T06:05:55.550Z,47.6
2018-01-22T06:06:55.482Z,47.5
2018-01-22T06:07:55.432Z,47.9
2018-01-22T06:08:55.344Z,47.9
2018-01-22T06:09:55.295Z,48.1
2018-01-22T06:10:55.204Z,48.1
2018-01-22T06:11:55.115Z,48.1
2018-01-22T06:12:55.048Z,48.4
2018-01-22T06:13:54.998Z,48.4
2018-01-22T06:14:54.929Z,48.6
2018-01-22T06:15:54.880Z,48.6
2018-01-22T06:16:54.790Z,48.7
2018-01-22T06:17:54.720Z,48.8
2018-01-22T06:18:54.654Z,48.8
2018-01-22T06:19:54.582Z,49
2018-01-22T06:20:54.536Z,49.1
2018-01-22T06:21:54.466Z,49.2
2018-01-22T06:22:54.376Z,49.2
2018-01-22T06:23:54.293Z,49.3
2018-01-22T06:24:54.259Z,49.4
2018-01-22T06:25:54.171Z,49.5
2018-01-22T06:26:54.126Z,49.6
2018-01-22T06:27:54.033Z,49.7
2018-01-22T06:28:53.962Z,49.8
2018-01-22T06:29:53.875Z,49.8
2018-01-22T06:30:53.828Z,49.9
2018-01-22T06:31:53.756Z,50
2018-01-22T06:32:53.666Z,50.1
2018-01-22T07:01:51.702Z,49.3
2018-01-22T07:02:51.598Z,49.5
2018-01-22T07:03:51.522Z,49.6
2018-01-22T07:04:51.487Z,49.3
2018-01-22T07:05:51.384Z,49.4
2018-01-22T07:06:51.316Z,49.3
2018-01-22T07:07:51.264Z,49.5
2018-01-22T07:08:51.197Z,49.4
2018-01-22T07:09:51.110Z,49.4
2018-01-22T07:10:51.061Z,49.4
2018-01-22T07:11:51.010Z,49.4
2018-01-22T07:12:50.929Z,49.6
2018-01-22T07:13:50.923Z,49.4
2018-01-22T07:14:50.808Z,49.5
2018-01-22T07:15:50.697Z,49.4
2018-01-22T07:16:50.645Z,49.5
2018-01-22T07:17:50.576Z,49.6
2018-01-22T07:18:50.507Z,49.4
2018-01-22T07:19:50.458Z,49.5
2018-01-22T07:20:50.367Z,49.4
2018-01-22T07:21:50.299Z,49.5
2018-01-22T07:22:50.229Z,49.5
2018-01-22T07:23:50.142Z,49.5
2018-01-22T07:24:50.113Z,49.5
2018-01-22T07:25:50.083Z,49.4
2018-01-22T07:26:49.957Z,49.5
2018-01-22T07:27:49.905Z,49.4
2018-01-22T07:28:49.799Z,49.5
2018-01-22T07:29:49.748Z,49.4
2018-01-22T07:30:49.677Z,49.4
2018-01-22T07:31:49.610Z,49.4
2018-01-22T07:32:49.519Z,49.4
2018-01-22T07:33:49.470Z,49.4
2018-01-22T07:34:49.398Z,49.4
2018-01-22T07:35:49.330Z,49.4
2018-01-22T07:36:49.284Z,49.4
2018-01-22T07:37:49.174Z,49.4
2018-01-22T07:38:49.107Z,49.4
2018-01-22T07:39:49.054Z,49.4
2018-01-22T07:40:48.965Z,49.4
2018-01-22T07:41:48.917Z,49.4
2018-01-22T07:42:48.867Z,49.4
2018-01-22T07:43:48.778Z,49.4
2018-01-22T07:44:48.712Z,49.4
2018-01-22T07:45:48.663Z,49.4
2018-01-22T07:46:48.591Z,49.4
2018-01-22T07:47:48.500Z,49.4
2018-01-22T07:48:48.452Z,49.4
2018-01-22T07:49:48.386Z,49.4
2018-01-22T07:50:48.273Z,49.4
2018-01-22T07:51:48.244Z,49.4
2018-01-22T07:52:48.154Z,49.4
2018-01-22T07:53:48.088Z,49.4
2018-01-22T07:54:48.038Z,49.4
2018-01-22T07:55:47.947Z,49.4
2018-01-22T07:56:47.875Z,49.3
2018-01-22T07:57:47.790Z,49.4
2018-01-22T07:58:47.738Z,49.4
2018-01-22T07:59:47.650Z,49.3
2018-01-22T08:00:47.621Z,49.3
2018-01-22T08:01:47.534Z,48.8
2018-01-22T08:02:47.446Z,48.9
2018-01-22T08:03:47.374Z,49
2018-01-22T08:04:47.324Z,48.6
2018-01-22T08:05:47.254Z,48.8
2018-01-22T08:06:47.186Z,48.6
2018-01-22T08:07:47.121Z,48.9
2018-01-22T08:08:47.027Z,48.9
2018-01-22T08:09:46.981Z,48.8
2018-01-22T08:11:46.890Z,48.7
2018-01-22T08:12:46.791Z,49
2018-01-22T08:13:46.722Z,48.9
2018-01-22T08:14:46.632Z,48.9
2018-01-22T08:15:46.545Z,48.9
2018-01-22T08:16:46.493Z,48.8
2018-01-22T08:17:46.408Z,49
2018-01-22T08:18:46.356Z,48.9
2018-01-22T08:19:46.285Z,48.9
2018-01-22T08:20:46.218Z,48.9
2018-01-22T08:21:46.169Z,48.9
2018-01-22T08:22:46.106Z,48.9
2018-01-22T08:23:45.991Z,48.9
2018-01-22T08:24:45.941Z,48.9
2018-01-22T08:25:45.854Z,48.9
2018-01-22T08:26:45.783Z,48.9
2018-01-22T08:27:45.754Z,48.9
2018-01-22T08:28:45.668Z,48.9
2018-01-22T08:29:45.594Z,48.9
2018-01-22T08:30:45.511Z,48.9
2018-01-22T08:31:45.437Z,48.9
2018-01-22T08:32:45.386Z,48.9
2018-01-22T08:33:45.325Z,48.9
2018-01-22T08:34:45.270Z,48.9
2018-01-22T08:35:45.160Z,48.9
2018-01-22T08:36:45.092Z,48.9
2018-01-22T08:37:45.042Z,48.9
2018-01-22T08:38:44.988Z,48.9
2018-01-22T08:39:44.924Z,48.9
2018-01-22T08:40:44.856Z,48.8
2018-01-22T08:41:44.765Z,48.9
2018-01-22T08:42:44.697Z,48.9
2018-01-22T08:43:44.629Z,48.9
2018-01-22T08:44:44.578Z,48.9
2018-01-22T08:45:44.487Z,48.8
2018-01-22T08:46:44.439Z,48.8
2018-01-22T08:47:44.350Z,48.9
2018-01-22T08:48:44.261Z,48.8
2018-01-22T08:49:44.191Z,48.9
2018-01-22T08:50:44.143Z,48.9
2018-01-22T08:51:44.074Z,48.8
2018-01-22T08:52:44.024Z,48.8
2018-01-22T08:53:43.935Z,48.8
2018-01-22T08:54:43.863Z,48.8
2018-01-22T08:55:43.795Z,48.8
2018-01-22T08:56:43.726Z,48.8
2018-01-22T08:57:43.677Z,48.8
2018-01-22T08:58:43.608Z,48.9
2018-01-22T08:59:43.517Z,48.8
2018-01-22T09:00:43.431Z,48.8
2018-01-22T09:01:43.400Z,48.3
2018-01-22T09:02:43.312Z,48.3
2018-01-22T09:03:43.262Z,48.6
2018-01-22T09:04:43.173Z,48.2
2018-01-22T09:05:43.101Z,48.3
2018-01-22T09:06:43.018Z,48.2
2018-01-22T09:07:42.965Z,48.3
2018-01-22T09:08:42.896Z,48.5
2018-01-22T09:09:42.806Z,48.3
2018-01-22T09:10:42.778Z,48.4
2018-01-22T09:11:42.668Z,48.3
2018-01-22T09:12:42.599Z,48.4
2018-01-22T09:13:42.550Z,48.5
2018-01-22T09:14:42.460Z,48.3
2018-01-22T09:15:42.391Z,48.4
2018-01-22T09:16:42.340Z,48.4
2018-01-22T09:17:42.258Z,48.4
2018-01-22T09:18:42.202Z,48.4
2018-01-22T09:19:42.158Z,48.3
2018-01-22T09:20:42.075Z,48.4
2018-01-22T09:21:42.016Z,48.4
2018-01-22T09:22:41.928Z,48.5
2018-01-22T09:23:41.858Z,48.4
2018-01-22T09:24:41.788Z,48.4
2018-01-22T09:25:41.742Z,48.3
2018-01-22T09:26:41.672Z,48.4
2018-01-22T09:27:41.563Z,48.4
2018-01-22T09:28:41.512Z,48.3
2018-01-22T09:29:41.426Z,48.4
2018-01-22T09:30:41.354Z,48.4
2018-01-22T09:31:41.324Z,48.3
2018-01-22T09:32:41.239Z,48.4
2018-01-22T09:33:41.164Z,48.3
2018-01-22T09:34:41.077Z,48.3
2018-01-22T09:35:41.007Z,48.4
2018-01-22T09:36:40.956Z,48.4
2018-01-22T09:37:40.888Z,48.3
2018-01-22T09:38:40.840Z,48.3
2018-01-22T09:39:40.730Z,48.3
2018-01-22T09:40:40.664Z,48.3
2018-01-22T09:41:40.651Z,48.2
2018-01-22T09:42:40.529Z,48.3
2018-01-22T09:43:40.493Z,48.4
2018-01-22T09:44:40.424Z,48.4
2018-01-22T09:45:40.335Z,48
2018-01-22T09:46:40.266Z,48.4
2018-01-22T09:47:40.197Z,48.6
2018-01-22T09:48:40.151Z,48.6
2018-01-22T09:49:40.059Z,48.6
2018-01-22T09:50:40.011Z,48.3
2018-01-22T09:51:39.922Z,48.3
2018-01-22T09:52:39.831Z,48.4
2018-01-22T09:53:39.762Z,48.3
2018-01-22T09:54:39.709Z,48.4
2018-01-22T09:55:39.643Z,48.4
2018-01-22T09:56:39.593Z,48.4
2018-01-22T09:57:39.503Z,48.4
2018-01-22T09:58:39.433Z,48.4
2018-01-22T09:59:39.365Z,48.4
2018-01-22T10:00:39.293Z,48.3
2018-01-22T10:01:39.250Z,47.8
2018-01-22T10:02:39.177Z,47.9
2018-01-22T10:03:39.088Z,48.1
2018-01-22T10:04:38.998Z,47.9
2018-01-22T10:05:38.971Z,48.3
2018-01-22T10:06:38.880Z,47.8
2018-01-22T10:07:38.832Z,48.1
2018-01-22T10:08:38.745Z,48.1
2018-01-22T10:09:38.671Z,47.9
2018-01-22T10:10:38.583Z,47.9
2018-01-22T10:11:38.535Z,47.9
2018-01-22T10:12:38.465Z,47.8
2018-01-22T10:13:38.376Z,48.1
2018-01-22T10:14:38.311Z,47.9
2018-01-22T10:15:38.278Z,47.9
2018-01-22T10:16:38.212Z,47.9
2018-01-22T10:17:38.219Z,47.9
2018-01-22T10:18:38.074Z,47.8
2018-01-22T10:19:38.006Z,47.9
2018-01-22T10:20:37.912Z,47.9
2018-01-22T10:21:37.844Z,47.9
2018-01-22T10:22:37.793Z,47.9
2018-01-22T10:23:37.703Z,47.7
2018-01-22T10:24:37.615Z,48
2018-01-22T10:25:37.565Z,47.9
2018-01-22T10:26:37.477Z,48
2018-01-22T10:27:37.407Z,47.9
2018-01-22T10:28:37.379Z,47.9
2018-01-22T10:29:37.287Z,48.3
2018-01-22T10:30:37.218Z,48.4
2018-01-22T10:31:37.154Z,47.9
2018-01-22T10:32:37.061Z,48.2
2018-01-22T10:33:37.012Z,48.1
2018-01-22T10:34:36.946Z,48.1
2018-01-22T10:35:36.872Z,47.9
2018-01-22T10:36:36.784Z,47.9
2018-01-22T10:37:36.759Z,48
2018-01-22T10:38:36.665Z,47.9
2018-01-22T10:39:36.597Z,47.9
2018-01-22T10:40:36.547Z,47.9
2018-01-22T10:41:36.441Z,47.9
2018-01-22T10:42:36.386Z,47.9
2018-01-22T10:43:36.321Z,47.9
2018-01-22T10:44:36.252Z,47.9
2018-01-22T10:45:36.165Z,48
2018-01-22T10:46:36.111Z,48
2018-01-22T10:47:36.041Z,48
2018-01-22T10:48:35.970Z,48
2018-01-22T10:49:35.914Z,48
2018-01-22T10:50:35.795Z,48
2018-01-22T10:51:35.715Z,48
2018-01-22T10:52:35.659Z,48
2018-01-22T10:53:35.559Z,47.9
2018-01-22T10:54:35.498Z,47.9
2018-01-22T10:55:35.441Z,48
2018-01-22T10:56:35.343Z,48
2018-01-22T10:57:35.264Z,48
2018-01-22T10:58:35.205Z,47.9
2018-01-22T10:59:35.127Z,48
2018-01-22T11:00:35.026Z,47.8
2018-01-22T11:01:34.970Z,47.8
2018-01-22T11:02:34.890Z,47.3
2018-01-22T11:03:34.772Z,47.8
2018-01-22T11:04:34.733Z,47.6
2018-01-22T11:05:34.633Z,47.4
2018-01-22T11:06:34.556Z,47.6
2018-01-22T11:07:34.500Z,47.3
2018-01-22T11:08:34.402Z,47.4
2018-01-22T11:09:34.318Z,47.7
2018-01-22T11:10:34.222Z,47.4
2018-01-22T11:11:34.167Z,47.5
2018-01-22T11:12:34.105Z,47.4
2018-01-22T11:13:33.988Z,47.6
2018-01-22T11:14:33.925Z,47.7
2018-01-22T11:15:33.868Z,47.5
2018-01-22T11:16:33.789Z,47.6
2018-01-22T11:17:33.690Z,47.6
2018-01-22T11:18:33.613Z,47.6
2018-01-22T11:19:33.533Z,47.7
2018-01-22T11:20:33.454Z,47.6
2018-01-22T11:21:33.399Z,47.6
2018-01-22T11:22:33.297Z,47.6
2018-01-22T11:23:33.220Z,47.6
2018-01-22T11:24:33.121Z,47.4
2018-01-22T11:25:33.049Z,47.4
2018-01-22T11:26:32.984Z,47.7
2018-01-22T11:27:32.926Z,47.6
2018-01-22T11:28:32.827Z,47.6
2018-01-22T11:29:32.777Z,47.6
2018-01-22T11:30:32.674Z,47.6
2018-01-22T11:31:32.592Z,47.6
2018-01-22T11:32:32.511Z,47.6
2018-01-22T11:33:32.455Z,47.7
2018-01-22T11:34:32.376Z,47.3
2018-01-22T11:35:32.256Z,47.1
2018-01-22T11:36:32.199Z,47.1
2018-01-22T11:37:32.100Z,47.1
2018-01-22T11:38:32.021Z,47
2018-01-22T11:39:31.986Z,47.3
2018-01-22T11:40:31.884Z,47.3
2018-01-22T11:41:31.807Z,47.2
2018-01-22T11:42:31.706Z,47.2
2018-01-22T11:43:31.629Z,47.1
2018-01-22T11:44:31.568Z,47.1
2018-01-22T11:45:31.490Z,47.3
2018-01-22T11:46:31.432Z,47.3
2018-01-22T11:47:31.313Z,47.2
2018-01-22T11:48:31.235Z,47.1
2018-01-22T11:49:31.179Z,47.2
2018-01-22T11:50:31.077Z,47.3
2018-01-22T11:51:31.039Z,47.3
2018-01-22T11:52:30.960Z,47.3
2018-01-22T11:53:30.860Z,47.3
2018-01-22T11:54:30.782Z,47.3
2018-01-22T11:55:30.704Z,47.4
2018-01-22T11:56:30.645Z,47.3
2018-01-22T11:57:30.546Z,47.3
2018-01-22T11:58:30.448Z,47.2
2018-01-22T11:59:30.409Z,47.3
2018-01-22T12:00:30.332Z,47.3
2018-01-22T12:01:30.211Z,47.1
2018-01-22T12:02:30.151Z,46.5
2018-01-22T12:03:30.076Z,47
2018-01-22T12:04:30.015Z,47
2018-01-22T12:05:29.915Z,46.8
2018-01-22T12:06:29.837Z,46.9
2018-01-22T12:07:29.759Z,46.6
2018-01-22T12:08:29.682Z,46.8
2018-01-22T12:09:29.582Z,47.1
2018-01-22T12:10:29.504Z,46.9
2018-01-22T12:11:29.445Z,46.9
2018-01-22T12:12:29.389Z,46.9
2018-01-22T12:13:29.269Z,46.8
2018-01-22T12:14:29.208Z,47
2018-01-22T12:15:29.111Z,46.9
2018-01-22T12:16:29.051Z,46.8
2018-01-22T12:17:28.981Z,46.9
2018-01-22T12:18:28.915Z,46.9
2018-01-22T12:19:28.865Z,47.1
2018-01-22T12:20:28.736Z,47.1
2018-01-22T12:21:28.680Z,46.9
2018-01-22T12:22:28.561Z,46.9
2018-01-22T12:23:28.522Z,47
2018-01-22T12:24:28.444Z,46.8
2018-01-22T12:25:28.343Z,46.9
2018-01-22T12:26:28.286Z,47
2018-01-22T12:27:28.208Z,46.8
2018-01-22T12:28:28.109Z,46.9
2018-01-22T12:29:28.030Z,46.4
2018-01-22T12:30:27.972Z,46.7
2018-01-22T12:31:27.874Z,46.9
2018-01-22T12:32:27.776Z,46.4
2018-01-22T12:33:27.717Z,46.5
2018-01-22T12:34:27.617Z,46.6
2018-01-22T12:35:27.538Z,46.3
2018-01-22T12:36:27.501Z,46.7
2018-01-22T12:37:27.399Z,46.7
2018-01-22T12:38:27.321Z,46.6
2018-01-22T12:39:27.250Z,46.6
2018-01-22T12:40:27.145Z,46.6
2018-01-22T12:41:27.088Z,46.5
2018-01-22T12:42:27.008Z,46.8
2018-01-22T12:43:26.929Z,46.6
2018-01-22T12:44:26.837Z,46.6
2018-01-22T12:45:26.797Z,46.7
2018-01-22T12:46:26.695Z,46.6
2018-01-22T12:47:26.616Z,46.7
2018-01-22T12:48:26.557Z,46.8
2018-01-22T12:49:26.439Z,46.6
2018-01-22T12:50:26.381Z,46.6
2018-01-22T12:51:26.301Z,46.7
2018-01-22T12:52:26.227Z,46.6
2018-01-22T12:53:26.124Z,46.7
2018-01-22T12:54:26.066Z,46.7
2018-01-22T12:55:25.987Z,46.6
2018-01-22T12:56:25.906Z,46.6
2018-01-22T12:57:25.850Z,46.7
2018-01-22T12:58:25.731Z,46.7
2018-01-22T12:59:25.652Z,46.8
2018-01-22T13:00:25.593Z,46.7
2018-01-22T13:01:25.496Z,46.5
2018-01-22T13:02:25.435Z,46.1
2018-01-22T13:03:25.379Z,46.5
2018-01-22T13:04:25.281Z,46.6
2018-01-22T13:05:25.223Z,46.2
2018-01-22T13:06:25.125Z,46.3
2018-01-22T13:07:25.044Z,46.3
2018-01-22T13:08:24.946Z,46.2
2018-01-22T13:09:24.890Z,46.5
2018-01-22T13:10:24.809Z,46.4
2018-01-22T13:11:24.729Z,46.3
2018-01-22T13:12:24.652Z,46.4
2018-01-22T13:13:24.552Z,46.3
2018-01-22T13:14:24.474Z,46.4
2018-01-22T13:15:24.416Z,46.5
2018-01-22T13:16:24.358Z,46.4
2018-01-22T13:17:24.238Z,46.3
2018-01-22T13:18:24.180Z,46.4
2018-01-22T13:19:24.081Z,46.3
2018-01-22T13:20:24.021Z,46.4
2018-01-22T13:21:23.991Z,46.5
2018-01-22T13:22:23.888Z,46.4
2018-01-22T13:23:23.837Z,46.4
2018-01-22T13:24:23.707Z,46.4
2018-01-22T13:25:23.652Z,46.3
2018-01-22T13:26:23.531Z,46.4
2018-01-22T13:27:23.493Z,46.4
2018-01-22T13:28:23.414Z,46.4
2018-01-22T13:29:23.314Z,46.4
2018-01-22T13:30:23.257Z,46.4
2018-01-22T13:31:23.178Z,46.3
2018-01-22T13:32:23.080Z,46.4
2018-01-22T13:33:23.001Z,46.4
2018-01-22T13:34:22.943Z,46.4
2018-01-22T13:35:22.841Z,46.4
2018-01-22T13:36:22.744Z,46.4
2018-01-22T13:37:22.685Z,46.4
2018-01-22T13:38:22.589Z,46.4
2018-01-22T13:39:22.511Z,46.4
2018-01-22T13:40:22.470Z,46.4
2018-01-22T13:41:22.373Z,46.4
2018-01-22T13:42:22.291Z,46.4
2018-01-22T13:43:22.216Z,46.4
2018-01-22T13:44:22.115Z,46.4
2018-01-22T13:45:22.057Z,46.4
2018-01-22T13:46:21.981Z,46.4
2018-01-22T13:47:21.901Z,46.4
2018-01-22T13:48:21.801Z,46.4
2018-01-22T13:49:21.763Z,46.4
2018-01-22T13:50:21.663Z,46.4